Main page
METAR-TAF:

METAR-TAF

Airports :

Guangzhou Baiyun International Airport

Guangzhou, China

latitude: 23-10N, longitude: 113-20E, elevation: 8 m

Current weather observation

The report was made 37 minutes ago, at 18:00 UTC
Wind 2 kt from the East
Temperature 13°C
Humidity 58%
Pressure 1020 hPa
Visibility 10 km or more
no clouds below 1500 m and no cumulonimbus

METAR: ZGGG 091800Z 09001MPS CAVOK 13/05 Q1020 NOSIG

Time: 02:37 (18:37 UTC)

Forecast

The report was made 3 hours and 35 minutes ago, at 15:02 UTC
Forecast valid from 09 at 18 UTC to 10 at 18 UTC
Wind 6 kt from the Northeast
Visibility 10 km or more
no clouds below 1500 m and no cumulonimbus

TAF: ZGGG 091502Z 0918/1018 04003MPS CAVOK TX21/1007Z TN09/0922Z

Weather observations and forecasts of more than 4000 airports (METAR and TAF reports).

The available stations are represented by yellow and red dots on the map.

Hover mouse over dot to see the name of the station.

Then click to see weather observations and forecasts.

To change the map : click on the green buttons with a black cross to zoom in, on the green button with a dash to zoom out, or on the green arrows for adjacent maps.


METAR-TAF: